sensor_id;sensor_type;location;lat;lon;timestamp;P1;durP1;ratioP1;P2;durP2;ratioP2
18623;SDS011;9441;51.420;7.036;2023-06-22T00:00:57;7.15;;;4.07;;
18623;SDS011;9441;51.420;7.036;2023-06-22T00:02:00;4.38;;;3.33;;
18623;SDS011;9441;51.420;7.036;2023-06-22T00:03:02;3.97;;;3.30;;
18623;SDS011;9441;51.420;7.036;2023-06-22T00:04:04;5.22;;;3.70;;
18623;SDS011;9441;51.420;7.036;2023-06-22T00:05:06;5.68;;;3.70;;
18623;SDS011;9441;51.420;7.036;2023-06-22T00:06:08;6.20;;;3.78;;
18623;SDS011;9441;51.420;7.036;2023-06-22T00:07:11;8.18;;;3.70;;
18623;SDS011;9441;51.420;7.036;2023-06-22T00:08:13;5.47;;;3.70;;
18623;SDS011;9441;51.420;7.036;2023-06-22T00:09:14;8.45;;;4.10;;
18623;SDS011;9441;51.420;7.036;2023-06-22T00:10:17;6.00;;;4.07;;
18623;SDS011;9441;51.420;7.036;2023-06-22T00:11:18;6.13;;;4.07;;
18623;SDS011;9441;51.420;7.036;2023-06-22T00:12:21;5.68;;;3.90;;
18623;SDS011;9441;51.420;7.036;2023-06-22T00:13:22;7.30;;;4.05;;
18623;SDS011;9441;51.420;7.036;2023-06-22T00:14:24;5.00;;;4.07;;
18623;SDS011;9441;51.420;7.036;2023-06-22T00:15:26;8.05;;;4.68;;
18623;SDS011;9441;51.420;7.036;2023-06-22T00:16:28;7.28;;;4.32;;
18623;SDS011;9441;51.420;7.036;2023-06-22T00:17:31;8.15;;;4.78;;
18623;SDS011;9441;51.420;7.036;2023-06-22T00:18:32;7.28;;;5.57;;
18623;SDS011;9441;51.420;7.036;2023-06-22T00:19:34;6.55;;;4.32;;
18623;SDS011;9441;51.420;7.036;2023-06-22T00:20:36;7.03;;;4.53;;
18623;SDS011;9441;51.420;7.036;2023-06-22T00:21:38;5.93;;;4.20;;
18623;SDS011;9441;51.420;7.036;2023-06-22T00:22:41;7.30;;;4.05;;
18623;SDS011;9441;51.420;7.036;2023-06-22T00:23:43;7.32;;;4.10;;
18623;SDS011;9441;51.420;7.036;2023-06-22T00:24:44;9.80;;;4.40;;
18623;SDS011;9441;51.420;7.036;2023-06-22T00:25:47;9.82;;;5.95;;
18623;SDS011;9441;51.420;7.036;2023-06-22T00:26:48;10.48;;;6.63;;
18623;SDS011;9441;51.420;7.036;2023-06-22T00:27:51;6.53;;;4.57;;
18623;SDS011;9441;51.420;7.036;2023-06-22T00:28:52;8.27;;;6.20;;
18623;SDS011;9441;51.420;7.036;2023-06-22T00:29:54;5.97;;;5.07;;
18623;SDS011;9441;51.420;7.036;2023-06-22T00:30:56;13.88;;;6.38;;
18623;SDS011;9441;51.420;7.036;2023-06-22T00:31:59;8.82;;;5.22;;
18623;SDS011;9441;51.420;7.036;2023-06-22T00:33:01;12.88;;;5.30;;
18623;SDS011;9441;51.420;7.036;2023-06-22T00:34:03;10.45;;;6.85;;
18623;SDS011;9441;51.420;7.036;2023-06-22T00:35:08;13.80;;;6.78;;
18623;SDS011;9441;51.420;7.036;2023-06-22T00:36:10;12.40;;;6.90;;
18623;SDS011;9441;51.420;7.036;2023-06-22T00:37:13;10.38;;;6.63;;
18623;SDS011;9441;51.420;7.036;2023-06-22T00:38:17;10.82;;;7.00;;
18623;SDS011;9441;51.420;7.036;2023-06-22T00:39:18;8.75;;;5.88;;
18623;SDS011;9441;51.420;7.036;2023-06-22T00:40:21;9.23;;;6.00;;
18623;SDS011;9441;51.420;7.036;2023-06-22T00:41:22;11.18;;;6.10;;
18623;SDS011;9441;51.420;7.036;2023-06-22T00:42:24;10.75;;;5.53;;
18623;SDS011;9441;51.420;7.036;2023-06-22T00:43:27;9.05;;;6.00;;
18623;SDS011;9441;51.420;7.036;2023-06-22T00:44:29;8.98;;;6.90;;
18623;SDS011;9441;51.420;7.036;2023-06-22T00:45:31;8.40;;;4.93;;
18623;SDS011;9441;51.420;7.036;2023-06-22T00:46:33;10.75;;;6.97;;
18623;SDS011;9441;51.420;7.036;2023-06-22T00:47:35;9.20;;;6.15;;
18623;SDS011;9441;51.420;7.036;2023-06-22T00:48:38;15.35;;;7.38;;
18623;SDS011;9441;51.420;7.036;2023-06-22T00:49:44;10.73;;;7.32;;
18623;SDS011;9441;51.420;7.036;2023-06-22T00:50:46;10.85;;;5.88;;
18623;SDS011;9441;51.420;7.036;2023-06-22T00:51:51;10.80;;;7.50;;
18623;SDS011;9441;51.420;7.036;2023-06-22T00:52:53;8.60;;;6.70;;
18623;SDS011;9441;51.420;7.036;2023-06-22T00:53:58;10.30;;;6.70;;
18623;SDS011;9441;51.420;7.036;2023-06-22T00:55:00;10.10;;;5.93;;
18623;SDS011;9441;51.420;7.036;2023-06-22T00:56:02;12.15;;;7.32;;
18623;SDS011;9441;51.420;7.036;2023-06-22T00:57:06;9.30;;;5.80;;
18623;SDS011;9441;51.420;7.036;2023-06-22T00:58:11;9.85;;;5.65;;
18623;SDS011;9441;51.420;7.036;2023-06-22T00:59:15;8.30;;;4.63;;
18623;SDS011;9441;51.420;7.036;2023-06-22T01:00:17;8.30;;;5.57;;
18623;SDS011;9441;51.420;7.036;2023-06-22T01:01:20;8.05;;;5.15;;
18623;SDS011;9441;51.420;7.036;2023-06-22T01:02:23;10.52;;;5.35;;
18623;SDS011;9441;51.420;7.036;2023-06-22T01:03:26;9.75;;;5.03;;
18623;SDS011;9441;51.420;7.036;2023-06-22T01:04:34;7.55;;;4.80;;
18623;SDS011;9441;51.420;7.036;2023-06-22T01:05:35;8.00;;;5.05;;
18623;SDS011;9441;51.420;7.036;2023-06-22T01:06:38;9.23;;;4.75;;
18623;SDS011;9441;51.420;7.036;2023-06-22T01:07:42;8.65;;;5.03;;
18623;SDS011;9441;51.420;7.036;2023-06-22T01:08:46;8.48;;;4.97;;
18623;SDS011;9441;51.420;7.036;2023-06-22T01:09:51;9.23;;;5.07;;
18623;SDS011;9441;51.420;7.036;2023-06-22T01:10:57;8.57;;;5.10;;
18623;SDS011;9441;51.420;7.036;2023-06-22T01:12:01;8.02;;;4.85;;
18623;SDS011;9441;51.420;7.036;2023-06-22T01:13:06;6.05;;;4.70;;
18623;SDS011;9441;51.420;7.036;2023-06-22T01:14:10;7.72;;;5.03;;
18623;SDS011;9441;51.420;7.036;2023-06-22T01:15:16;9.35;;;5.13;;
18623;SDS011;9441;51.420;7.036;2023-06-22T01:16:22;9.75;;;5.80;;
18623;SDS011;9441;51.420;7.036;2023-06-22T01:17:25;9.63;;;5.40;;
18623;SDS011;9441;51.420;7.036;2023-06-22T01:18:28;7.25;;;5.20;;
18623;SDS011;9441;51.420;7.036;2023-06-22T01:19:35;6.50;;;5.00;;
18623;SDS011;9441;51.420;7.036;2023-06-22T01:20:37;8.60;;;5.53;;
18623;SDS011;9441;51.420;7.036;2023-06-22T01:21:40;8.20;;;5.38;;
18623;SDS011;9441;51.420;7.036;2023-06-22T01:22:48;8.75;;;5.40;;
18623;SDS011;9441;51.420;7.036;2023-06-22T01:23:57;9.02;;;5.10;;
18623;SDS011;9441;51.420;7.036;2023-06-22T01:25:05;7.82;;;5.05;;
18623;SDS011;9441;51.420;7.036;2023-06-22T01:26:12;7.00;;;4.75;;
18623;SDS011;9441;51.420;7.036;2023-06-22T01:27:25;6.65;;;4.95;;
18623;SDS011;9441;51.420;7.036;2023-06-22T01:29:51;8.35;;;4.65;;
18623;SDS011;9441;51.420;7.036;2023-06-22T01:30:55;8.55;;;4.75;;
18623;SDS011;9441;51.420;7.036;2023-06-22T01:32:05;10.48;;;4.40;;
18623;SDS011;9441;51.420;7.036;2023-06-22T01:33:09;8.30;;;4.40;;
18623;SDS011;9441;51.420;7.036;2023-06-22T01:34:11;8.75;;;4.40;;
18623;SDS011;9441;51.420;7.036;2023-06-22T01:35:14;8.48;;;4.53;;
18623;SDS011;9441;51.420;7.036;2023-06-22T01:36:17;6.38;;;4.45;;
18623;SDS011;9441;51.420;7.036;2023-06-22T01:37:21;9.30;;;4.43;;
18623;SDS011;9441;51.420;7.036;2023-06-22T01:38:25;7.43;;;4.60;;
18623;SDS011;9441;51.420;7.036;2023-06-22T01:39:28;5.97;;;4.25;;
18623;SDS011;9441;51.420;7.036;2023-06-22T01:40:31;11.50;;;4.55;;
18623;SDS011;9441;51.420;7.036;2023-06-22T01:41:34;7.57;;;4.38;;
18623;SDS011;9441;51.420;7.036;2023-06-22T01:42:37;8.38;;;5.10;;
18623;SDS011;9441;51.420;7.036;2023-06-22T01:43:41;7.93;;;4.72;;
18623;SDS011;9441;51.420;7.036;2023-06-22T01:44:43;10.90;;;4.97;;
18623;SDS011;9441;51.420;7.036;2023-06-22T01:45:46;6.20;;;4.47;;
18623;SDS011;9441;51.420;7.036;2023-06-22T01:46:48;7.22;;;4.57;;
18623;SDS011;9441;51.420;7.036;2023-06-22T01:47:50;8.40;;;4.43;;
18623;SDS011;9441;51.420;7.036;2023-06-22T01:48:52;9.65;;;4.72;;
18623;SDS011;9441;51.420;7.036;2023-06-22T01:49:54;8.80;;;4.35;;
18623;SDS011;9441;51.420;7.036;2023-06-22T01:50:56;7.47;;;4.07;;
18623;SDS011;9441;51.420;7.036;2023-06-22T01:51:58;10.65;;;3.80;;
18623;SDS011;9441;51.420;7.036;2023-06-22T01:53:02;7.15;;;4.45;;
18623;SDS011;9441;51.420;7.036;2023-06-22T01:54:05;6.90;;;4.00;;
18623;SDS011;9441;51.420;7.036;2023-06-22T01:55:08;8.43;;;4.40;;
18623;SDS011;9441;51.420;7.036;2023-06-22T01:56:09;7.13;;;3.97;;
18623;SDS011;9441;51.420;7.036;2023-06-22T01:57:12;5.53;;;4.10;;
18623;SDS011;9441;51.420;7.036;2023-06-22T01:58:13;5.70;;;4.20;;
18623;SDS011;9441;51.420;7.036;2023-06-22T01:59:17;8.60;;;4.10;;
18623;SDS011;9441;51.420;7.036;2023-06-22T02:00:20;14.93;;;4.20;;
18623;SDS011;9441;51.420;7.036;2023-06-22T02:01:33;10.25;;;4.45;;
18623;SDS011;9441;51.420;7.036;2023-06-22T02:02:38;10.20;;;4.07;;
18623;SDS011;9441;51.420;7.036;2023-06-22T02:03:43;10.10;;;4.00;;
18623;SDS011;9441;51.420;7.036;2023-06-22T02:04:47;7.88;;;4.10;;
18623;SDS011;9441;51.420;7.036;2023-06-22T02:05:52;7.25;;;4.32;;
18623;SDS011;9441;51.420;7.036;2023-06-22T02:06:56;6.95;;;4.57;;
18623;SDS011;9441;51.420;7.036;2023-06-22T02:08:02;6.43;;;4.50;;
18623;SDS011;9441;51.420;7.036;2023-06-22T02:09:08;8.48;;;4.40;;
18623;SDS011;9441;51.420;7.036;2023-06-22T02:10:12;6.65;;;4.80;;
18623;SDS011;9441;51.420;7.036;2023-06-22T02:11:15;9.20;;;3.92;;
18623;SDS011;9441;51.420;7.036;2023-06-22T02:12:21;8.25;;;4.32;;
18623;SDS011;9441;51.420;7.036;2023-06-22T02:13:23;9.43;;;4.30;;
18623;SDS011;9441;51.420;7.036;2023-06-22T02:14:26;7.80;;;4.63;;
18623;SDS011;9441;51.420;7.036;2023-06-22T02:15:28;6.97;;;4.82;;
18623;SDS011;9441;51.420;7.036;2023-06-22T02:16:32;8.43;;;4.93;;
18623;SDS011;9441;51.420;7.036;2023-06-22T02:17:34;7.43;;;4.53;;
18623;SDS011;9441;51.420;7.036;2023-06-22T02:18:36;10.20;;;4.60;;
18623;SDS011;9441;51.420;7.036;2023-06-22T02:19:37;8.68;;;4.38;;
18623;SDS011;9441;51.420;7.036;2023-06-22T02:20:40;6.07;;;4.50;;
18623;SDS011;9441;51.420;7.036;2023-06-22T02:21:41;9.27;;;4.50;;
18623;SDS011;9441;51.420;7.036;2023-06-22T02:22:43;8.60;;;4.60;;
18623;SDS011;9441;51.420;7.036;2023-06-22T02:23:45;6.65;;;4.55;;
18623;SDS011;9441;51.420;7.036;2023-06-22T02:24:47;7.50;;;4.57;;
18623;SDS011;9441;51.420;7.036;2023-06-22T02:25:49;10.77;;;5.05;;
18623;SDS011;9441;51.420;7.036;2023-06-22T02:26:51;5.40;;;4.63;;
18623;SDS011;9441;51.420;7.036;2023-06-22T02:27:52;11.57;;;4.82;;
18623;SDS011;9441;51.420;7.036;2023-06-22T02:28:54;7.05;;;4.80;;
18623;SDS011;9441;51.420;7.036;2023-06-22T02:29:56;7.10;;;4.63;;
18623;SDS011;9441;51.420;7.036;2023-06-22T02:30:58;8.27;;;5.43;;
18623;SDS011;9441;51.420;7.036;2023-06-22T02:32:01;9.77;;;4.82;;
18623;SDS011;9441;51.420;7.036;2023-06-22T02:33:04;8.00;;;5.70;;
18623;SDS011;9441;51.420;7.036;2023-06-22T02:34:05;7.35;;;4.85;;
18623;SDS011;9441;51.420;7.036;2023-06-22T02:35:08;8.15;;;4.97;;
18623;SDS011;9441;51.420;7.036;2023-06-22T02:36:09;9.18;;;4.97;;
18623;SDS011;9441;51.420;7.036;2023-06-22T02:37:13;14.23;;;5.18;;
18623;SDS011;9441;51.420;7.036;2023-06-22T02:38:15;7.97;;;5.47;;
18623;SDS011;9441;51.420;7.036;2023-06-22T02:39:19;7.30;;;5.03;;
18623;SDS011;9441;51.420;7.036;2023-06-22T02:40:20;7.63;;;4.80;;
18623;SDS011;9441;51.420;7.036;2023-06-22T02:41:23;10.98;;;5.45;;
18623;SDS011;9441;51.420;7.036;2023-06-22T02:42:24;8.55;;;5.25;;
18623;SDS011;9441;51.420;7.036;2023-06-22T02:43:27;9.20;;;5.20;;
18623;SDS011;9441;51.420;7.036;2023-06-22T02:44:29;6.82;;;5.45;;
18623;SDS011;9441;51.420;7.036;2023-06-22T02:45:30;8.63;;;5.40;;
18623;SDS011;9441;51.420;7.036;2023-06-22T02:46:33;9.35;;;6.15;;
18623;SDS011;9441;51.420;7.036;2023-06-22T02:47:36;8.95;;;5.57;;
18623;SDS011;9441;51.420;7.036;2023-06-22T02:48:39;10.18;;;5.25;;
18623;SDS011;9441;51.420;7.036;2023-06-22T02:49:40;8.00;;;5.50;;
18623;SDS011;9441;51.420;7.036;2023-06-22T02:50:45;10.20;;;6.15;;
18623;SDS011;9441;51.420;7.036;2023-06-22T02:51:46;9.05;;;5.53;;
18623;SDS011;9441;51.420;7.036;2023-06-22T02:52:52;8.70;;;5.57;;
18623;SDS011;9441;51.420;7.036;2023-06-22T02:53:53;11.40;;;6.20;;
18623;SDS011;9441;51.420;7.036;2023-06-22T02:54:57;7.75;;;6.00;;
18623;SDS011;9441;51.420;7.036;2023-06-22T02:56:00;8.30;;;6.38;;
18623;SDS011;9441;51.420;7.036;2023-06-22T02:57:04;8.90;;;6.60;;
18623;SDS011;9441;51.420;7.036;2023-06-22T02:58:06;9.82;;;7.28;;
18623;SDS011;9441;51.420;7.036;2023-06-22T02:59:11;12.60;;;7.30;;
18623;SDS011;9441;51.420;7.036;2023-06-22T03:00:13;13.52;;;7.32;;
18623;SDS011;9441;51.420;7.036;2023-06-22T03:01:20;12.63;;;6.45;;
18623;SDS011;9441;51.420;7.036;2023-06-22T03:02:24;17.52;;;6.78;;
18623;SDS011;9441;51.420;7.036;2023-06-22T03:03:28;9.90;;;5.88;;
18623;SDS011;9441;51.420;7.036;2023-06-22T03:04:29;13.48;;;6.65;;
18623;SDS011;9441;51.420;7.036;2023-06-22T03:05:32;10.48;;;6.20;;
18623;SDS011;9441;51.420;7.036;2023-06-22T03:06:35;7.47;;;6.15;;
18623;SDS011;9441;51.420;7.036;2023-06-22T03:07:41;11.32;;;6.55;;
18623;SDS011;9441;51.420;7.036;2023-06-22T03:08:44;10.77;;;6.43;;
18623;SDS011;9441;51.420;7.036;2023-06-22T03:09:45;12.35;;;6.97;;
18623;SDS011;9441;51.420;7.036;2023-06-22T03:10:48;9.15;;;6.90;;
18623;SDS011;9441;51.420;7.036;2023-06-22T03:11:49;9.93;;;6.15;;
18623;SDS011;9441;51.420;7.036;2023-06-22T03:12:54;13.52;;;7.03;;
18623;SDS011;9441;51.420;7.036;2023-06-22T03:13:55;11.98;;;7.13;;
18623;SDS011;9441;51.420;7.036;2023-06-22T03:14:57;11.77;;;6.75;;
18623;SDS011;9441;51.420;7.036;2023-06-22T03:15:59;9.20;;;6.88;;
18623;SDS011;9441;51.420;7.036;2023-06-22T03:17:01;11.30;;;7.90;;
18623;SDS011;9441;51.420;7.036;2023-06-22T03:18:03;10.13;;;7.75;;
18623;SDS011;9441;51.420;7.036;2023-06-22T03:19:07;8.48;;;7.28;;
18623;SDS011;9441;51.420;7.036;2023-06-22T03:20:09;10.85;;;7.35;;
18623;SDS011;9441;51.420;7.036;2023-06-22T03:21:12;14.18;;;7.82;;
18623;SDS011;9441;51.420;7.036;2023-06-22T03:22:15;12.63;;;7.70;;
18623;SDS011;9441;51.420;7.036;2023-06-22T03:23:17;15.07;;;7.40;;
18623;SDS011;9441;51.420;7.036;2023-06-22T03:24:19;12.93;;;8.10;;
18623;SDS011;9441;51.420;7.036;2023-06-22T03:25:21;13.05;;;7.28;;
18623;SDS011;9441;51.420;7.036;2023-06-22T03:26:23;12.77;;;7.47;;
18623;SDS011;9441;51.420;7.036;2023-06-22T03:27:27;9.50;;;6.80;;
18623;SDS011;9441;51.420;7.036;2023-06-22T03:28:28;13.60;;;7.90;;
18623;SDS011;9441;51.420;7.036;2023-06-22T03:29:30;11.43;;;7.43;;
18623;SDS011;9441;51.420;7.036;2023-06-22T03:30:32;11.95;;;7.68;;
18623;SDS011;9441;51.420;7.036;2023-06-22T03:31:35;10.70;;;8.20;;
18623;SDS011;9441;51.420;7.036;2023-06-22T03:32:36;17.50;;;8.23;;
18623;SDS011;9441;51.420;7.036;2023-06-22T03:33:40;16.88;;;7.90;;
18623;SDS011;9441;51.420;7.036;2023-06-22T03:34:43;12.13;;;8.15;;
18623;SDS011;9441;51.420;7.036;2023-06-22T03:35:47;11.35;;;8.00;;
18623;SDS011;9441;51.420;7.036;2023-06-22T03:36:50;13.35;;;7.18;;
18623;SDS011;9441;51.420;7.036;2023-06-22T03:37:52;11.23;;;7.68;;
18623;SDS011;9441;51.420;7.036;2023-06-22T03:38:54;13.15;;;7.70;;
18623;SDS011;9441;51.420;7.036;2023-06-22T03:39:57;11.68;;;7.70;;
18623;SDS011;9441;51.420;7.036;2023-06-22T03:40:58;12.40;;;7.90;;
18623;SDS011;9441;51.420;7.036;2023-06-22T03:42:00;10.10;;;8.00;;
18623;SDS011;9441;51.420;7.036;2023-06-22T03:43:02;10.18;;;7.70;;
18623;SDS011;9441;51.420;7.036;2023-06-22T03:44:04;14.18;;;8.07;;
18623;SDS011;9441;51.420;7.036;2023-06-22T03:45:06;16.52;;;8.75;;
18623;SDS011;9441;51.420;7.036;2023-06-22T03:46:08;14.85;;;9.18;;
18623;SDS011;9441;51.420;7.036;2023-06-22T03:47:10;17.05;;;9.52;;
18623;SDS011;9441;51.420;7.036;2023-06-22T03:48:12;14.77;;;9.25;;
18623;SDS011;9441;51.420;7.036;2023-06-22T03:49:13;13.23;;;9.00;;
18623;SDS011;9441;51.420;7.036;2023-06-22T03:50:17;16.83;;;8.55;;
18623;SDS011;9441;51.420;7.036;2023-06-22T03:51:20;12.70;;;8.38;;
18623;SDS011;9441;51.420;7.036;2023-06-22T03:52:22;12.48;;;8.23;;
18623;SDS011;9441;51.420;7.036;2023-06-22T03:53:25;11.90;;;8.18;;
18623;SDS011;9441;51.420;7.036;2023-06-22T03:54:26;10.52;;;7.32;;
18623;SDS011;9441;51.420;7.036;2023-06-22T03:55:29;11.77;;;7.65;;
18623;SDS011;9441;51.420;7.036;2023-06-22T03:56:30;13.43;;;8.52;;
18623;SDS011;9441;51.420;7.036;2023-06-22T03:57:32;10.45;;;7.45;;
18623;SDS011;9441;51.420;7.036;2023-06-22T03:58:34;11.30;;;7.40;;
18623;SDS011;9441;51.420;7.036;2023-06-22T03:59:37;9.98;;;7.82;;
18623;SDS011;9441;51.420;7.036;2023-06-22T04:00:38;12.65;;;7.57;;
18623;SDS011;9441;51.420;7.036;2023-06-22T04:01:40;10.82;;;7.68;;
18623;SDS011;9441;51.420;7.036;2023-06-22T04:02:43;12.70;;;7.15;;
18623;SDS011;9441;51.420;7.036;2023-06-22T04:03:44;11.15;;;7.45;;
18623;SDS011;9441;51.420;7.036;2023-06-22T04:04:49;11.20;;;7.70;;
18623;SDS011;9441;51.420;7.036;2023-06-22T04:05:51;9.52;;;6.95;;
18623;SDS011;9441;51.420;7.036;2023-06-22T04:06:54;16.80;;;11.25;;
18623;SDS011;9441;51.420;7.036;2023-06-22T04:07:55;14.38;;;9.95;;
18623;SDS011;9441;51.420;7.036;2023-06-22T04:08:57;12.57;;;9.40;;
18623;SDS011;9441;51.420;7.036;2023-06-22T04:09:59;16.27;;;10.10;;
18623;SDS011;9441;51.420;7.036;2023-06-22T04:11:01;15.88;;;11.35;;
18623;SDS011;9441;51.420;7.036;2023-06-22T04:12:02;15.00;;;11.77;;
18623;SDS011;9441;51.420;7.036;2023-06-22T04:13:05;13.98;;;10.30;;
18623;SDS011;9441;51.420;7.036;2023-06-22T04:14:06;10.13;;;8.05;;
18623;SDS011;9441;51.420;7.036;2023-06-22T04:15:09;13.48;;;8.50;;
18623;SDS011;9441;51.420;7.036;2023-06-22T04:16:12;11.23;;;9.40;;
18623;SDS011;9441;51.420;7.036;2023-06-22T04:17:14;13.75;;;9.02;;
18623;SDS011;9441;51.420;7.036;2023-06-22T04:18:17;13.88;;;9.00;;
18623;SDS011;9441;51.420;7.036;2023-06-22T04:19:19;14.38;;;10.32;;
18623;SDS011;9441;51.420;7.036;2023-06-22T04:20:21;17.60;;;10.60;;
18623;SDS011;9441;51.420;7.036;2023-06-22T04:21:24;19.42;;;11.85;;
18623;SDS011;9441;51.420;7.036;2023-06-22T04:22:26;12.27;;;9.38;;
18623;SDS011;9441;51.420;7.036;2023-06-22T04:23:28;15.55;;;9.95;;
18623;SDS011;9441;51.420;7.036;2023-06-22T04:24:30;35.92;;;13.63;;
18623;SDS011;9441;51.420;7.036;2023-06-22T04:25:31;16.13;;;10.93;;
18623;SDS011;9441;51.420;7.036;2023-06-22T04:26:33;14.85;;;10.63;;
18623;SDS011;9441;51.420;7.036;2023-06-22T04:27:37;15.18;;;10.63;;
18623;SDS011;9441;51.420;7.036;2023-06-22T04:28:40;16.42;;;11.77;;
18623;SDS011;9441;51.420;7.036;2023-06-22T04:29:42;14.32;;;10.60;;
18623;SDS011;9441;51.420;7.036;2023-06-22T04:30:49;17.65;;;12.93;;
18623;SDS011;9441;51.420;7.036;2023-06-22T04:31:51;19.45;;;12.00;;
18623;SDS011;9441;51.420;7.036;2023-06-22T04:32:53;16.65;;;10.73;;
18623;SDS011;9441;51.420;7.036;2023-06-22T04:33:58;16.45;;;10.10;;
18623;SDS011;9441;51.420;7.036;2023-06-22T04:35:06;16.27;;;9.68;;
18623;SDS011;9441;51.420;7.036;2023-06-22T04:36:08;18.33;;;11.95;;
18623;SDS011;9441;51.420;7.036;2023-06-22T04:37:14;18.13;;;10.38;;
18623;SDS011;9441;51.420;7.036;2023-06-22T04:38:16;13.52;;;9.93;;
18623;SDS011;9441;51.420;7.036;2023-06-22T04:39:18;13.90;;;10.30;;
18623;SDS011;9441;51.420;7.036;2023-06-22T04:40:19;14.82;;;10.48;;
18623;SDS011;9441;51.420;7.036;2023-06-22T04:41:22;16.40;;;11.93;;
18623;SDS011;9441;51.420;7.036;2023-06-22T04:42:25;18.45;;;11.10;;
18623;SDS011;9441;51.420;7.036;2023-06-22T04:43:27;13.07;;;9.30;;
18623;SDS011;9441;51.420;7.036;2023-06-22T04:44:30;21.48;;;15.70;;
18623;SDS011;9441;51.420;7.036;2023-06-22T04:45:32;19.17;;;11.48;;
18623;SDS011;9441;51.420;7.036;2023-06-22T04:46:35;19.05;;;13.10;;
18623;SDS011;9441;51.420;7.036;2023-06-22T04:47:38;18.38;;;13.00;;
18623;SDS011;9441;51.420;7.036;2023-06-22T04:48:40;19.45;;;14.48;;
18623;SDS011;9441;51.420;7.036;2023-06-22T04:49:42;21.75;;;14.95;;
18623;SDS011;9441;51.420;7.036;2023-06-22T04:50:47;19.95;;;15.38;;
18623;SDS011;9441;51.420;7.036;2023-06-22T04:51:48;20.35;;;14.57;;
18623;SDS011;9441;51.420;7.036;2023-06-22T04:52:53;20.42;;;14.38;;
18623;SDS011;9441;51.420;7.036;2023-06-22T04:53:55;16.17;;;12.32;;
18623;SDS011;9441;51.420;7.036;2023-06-22T04:55:01;17.00;;;12.93;;
18623;SDS011;9441;51.420;7.036;2023-06-22T04:56:04;16.98;;;13.35;;
18623;SDS011;9441;51.420;7.036;2023-06-22T04:57:05;19.92;;;13.65;;
18623;SDS011;9441;51.420;7.036;2023-06-22T04:58:10;22.00;;;14.25;;
18623;SDS011;9441;51.420;7.036;2023-06-22T04:59:13;20.20;;;14.35;;
18623;SDS011;9441;51.420;7.036;2023-06-22T05:00:15;22.40;;;15.30;;
18623;SDS011;9441;51.420;7.036;2023-06-22T05:01:17;18.08;;;13.52;;
18623;SDS011;9441;51.420;7.036;2023-06-22T05:02:22;20.75;;;14.68;;
18623;SDS011;9441;51.420;7.036;2023-06-22T05:03:33;25.75;;;16.73;;
18623;SDS011;9441;51.420;7.036;2023-06-22T05:04:37;21.17;;;14.82;;
18623;SDS011;9441;51.420;7.036;2023-06-22T05:05:39;17.55;;;14.23;;
18623;SDS011;9441;51.420;7.036;2023-06-22T05:06:40;20.90;;;14.23;;
18623;SDS011;9441;51.420;7.036;2023-06-22T05:07:43;21.90;;;15.27;;
18623;SDS011;9441;51.420;7.036;2023-06-22T05:08:46;18.40;;;14.15;;
18623;SDS011;9441;51.420;7.036;2023-06-22T05:09:48;25.13;;;15.07;;
18623;SDS011;9441;51.420;7.036;2023-06-22T05:10:50;21.10;;;14.57;;
18623;SDS011;9441;51.420;7.036;2023-06-22T05:11:52;18.58;;;14.05;;
18623;SDS011;9441;51.420;7.036;2023-06-22T05:12:54;23.05;;;14.38;;
18623;SDS011;9441;51.420;7.036;2023-06-22T05:13:55;20.90;;;15.60;;
18623;SDS011;9441;51.420;7.036;2023-06-22T05:14:58;22.73;;;15.93;;
18623;SDS011;9441;51.420;7.036;2023-06-22T05:15:59;23.67;;;15.07;;
18623;SDS011;9441;51.420;7.036;2023-06-22T05:17:03;24.08;;;14.93;;
18623;SDS011;9441;51.420;7.036;2023-06-22T05:18:04;22.92;;;14.85;;
18623;SDS011;9441;51.420;7.036;2023-06-22T05:19:06;20.67;;;14.65;;
18623;SDS011;9441;51.420;7.036;2023-06-22T05:20:08;21.80;;;14.95;;
18623;SDS011;9441;51.420;7.036;2023-06-22T05:21:11;21.67;;;16.25;;
18623;SDS011;9441;51.420;7.036;2023-06-22T05:22:12;26.40;;;17.80;;
18623;SDS011;9441;51.420;7.036;2023-06-22T05:23:15;26.08;;;17.92;;
18623;SDS011;9441;51.420;7.036;2023-06-22T05:24:17;24.23;;;17.63;;
18623;SDS011;9441;51.420;7.036;2023-06-22T05:25:20;21.27;;;14.80;;
18623;SDS011;9441;51.420;7.036;2023-06-22T05:26:21;21.58;;;14.40;;
18623;SDS011;9441;51.420;7.036;2023-06-22T05:27:24;19.75;;;14.52;;
18623;SDS011;9441;51.420;7.036;2023-06-22T05:28:25;22.05;;;14.43;;
18623;SDS011;9441;51.420;7.036;2023-06-22T05:29:27;19.65;;;14.10;;
18623;SDS011;9441;51.420;7.036;2023-06-22T05:30:28;17.90;;;14.00;;
18623;SDS011;9441;51.420;7.036;2023-06-22T05:31:31;23.67;;;16.92;;
18623;SDS011;9441;51.420;7.036;2023-06-22T05:32:32;22.80;;;14.70;;
18623;SDS011;9441;51.420;7.036;2023-06-22T05:33:34;22.13;;;15.00;;
18623;SDS011;9441;51.420;7.036;2023-06-22T05:34:36;19.92;;;14.30;;
18623;SDS011;9441;51.420;7.036;2023-06-22T05:35:38;22.42;;;14.02;;
18623;SDS011;9441;51.420;7.036;2023-06-22T05:36:39;23.98;;;16.52;;
18623;SDS011;9441;51.420;7.036;2023-06-22T05:37:44;20.30;;;14.40;;
18623;SDS011;9441;51.420;7.036;2023-06-22T05:38:45;23.40;;;13.85;;
18623;SDS011;9441;51.420;7.036;2023-06-22T05:39:49;20.25;;;14.32;;
18623;SDS011;9441;51.420;7.036;2023-06-22T05:40:51;23.67;;;13.82;;
18623;SDS011;9441;51.420;7.036;2023-06-22T05:41:53;19.20;;;13.60;;
18623;SDS011;9441;51.420;7.036;2023-06-22T05:42:54;23.77;;;14.45;;
18623;SDS011;9441;51.420;7.036;2023-06-22T05:43:57;19.05;;;14.50;;
18623;SDS011;9441;51.420;7.036;2023-06-22T05:44:58;20.77;;;14.70;;
18623;SDS011;9441;51.420;7.036;2023-06-22T05:46:01;22.05;;;15.07;;
18623;SDS011;9441;51.420;7.036;2023-06-22T05:47:03;23.92;;;15.63;;
18623;SDS011;9441;51.420;7.036;2023-06-22T05:48:05;20.67;;;15.27;;
18623;SDS011;9441;51.420;7.036;2023-06-22T05:49:06;22.85;;;16.58;;
18623;SDS011;9441;51.420;7.036;2023-06-22T05:50:09;20.88;;;15.38;;
18623;SDS011;9441;51.420;7.036;2023-06-22T05:51:10;28.58;;;16.52;;
18623;SDS011;9441;51.420;7.036;2023-06-22T05:52:12;24.48;;;15.75;;
18623;SDS011;9441;51.420;7.036;2023-06-22T05:53:14;22.35;;;16.67;;
18623;SDS011;9441;51.420;7.036;2023-06-22T05:54:16;24.77;;;15.95;;
18623;SDS011;9441;51.420;7.036;2023-06-22T05:55:19;21.92;;;15.63;;
18623;SDS011;9441;51.420;7.036;2023-06-22T05:56:21;23.27;;;15.73;;
18623;SDS011;9441;51.420;7.036;2023-06-22T05:57:23;21.83;;;15.23;;
18623;SDS011;9441;51.420;7.036;2023-06-22T05:58:25;23.75;;;16.48;;
18623;SDS011;9441;51.420;7.036;2023-06-22T05:59:26;24.27;;;16.83;;
18623;SDS011;9441;51.420;7.036;2023-06-22T06:00:29;20.23;;;15.18;;
18623;SDS011;9441;51.420;7.036;2023-06-22T06:01:30;22.85;;;16.27;;
18623;SDS011;9441;51.420;7.036;2023-06-22T06:02:35;23.83;;;16.33;;
18623;SDS011;9441;51.420;7.036;2023-06-22T06:03:37;24.05;;;16.60;;
18623;SDS011;9441;51.420;7.036;2023-06-22T06:04:41;20.45;;;15.70;;
18623;SDS011;9441;51.420;7.036;2023-06-22T06:05:43;24.35;;;15.85;;
18623;SDS011;9441;51.420;7.036;2023-06-22T06:06:45;20.38;;;15.50;;
18623;SDS011;9441;51.420;7.036;2023-06-22T06:07:48;24.08;;;14.75;;
18623;SDS011;9441;51.420;7.036;2023-06-22T06:08:49;21.35;;;14.82;;
18623;SDS011;9441;51.420;7.036;2023-06-22T06:09:51;18.98;;;13.85;;
18623;SDS011;9441;51.420;7.036;2023-06-22T06:10:54;19.13;;;14.13;;
18623;SDS011;9441;51.420;7.036;2023-06-22T06:11:57;20.08;;;14.90;;
18623;SDS011;9441;51.420;7.036;2023-06-22T06:12:59;24.90;;;14.48;;
18623;SDS011;9441;51.420;7.036;2023-06-22T06:14:04;21.77;;;14.13;;
18623;SDS011;9441;51.420;7.036;2023-06-22T06:15:06;20.83;;;14.15;;
18623;SDS011;9441;51.420;7.036;2023-06-22T06:16:08;20.88;;;14.65;;
18623;SDS011;9441;51.420;7.036;2023-06-22T06:17:09;24.45;;;15.88;;
18623;SDS011;9441;51.420;7.036;2023-06-22T06:18:12;23.60;;;15.63;;
18623;SDS011;9441;51.420;7.036;2023-06-22T06:19:14;25.48;;;15.45;;
18623;SDS011;9441;51.420;7.036;2023-06-22T06:20:15;19.98;;;14.73;;